sensor_id;sensor_type;location;lat;lon;timestamp;P1;durP1;ratioP1;P2;durP2;ratioP2
74593;SDS011;63097;51.872;4.460;2023-08-24T00:00:39;13.02;;;3.75;;
74593;SDS011;63097;51.872;4.460;2023-08-24T00:03:05;8.73;;;3.72;;
74593;SDS011;63097;51.872;4.460;2023-08-24T00:05:37;10.30;;;3.28;;
74593;SDS011;63097;51.872;4.460;2023-08-24T00:08:06;11.20;;;3.65;;
74593;SDS011;63097;51.872;4.460;2023-08-24T00:10:32;10.18;;;3.30;;
74593;SDS011;63097;51.872;4.460;2023-08-24T00:12:57;10.55;;;4.00;;
74593;SDS011;63097;51.872;4.460;2023-08-24T00:15:22;15.07;;;3.88;;
74593;SDS011;63097;51.872;4.460;2023-08-24T00:17:48;9.52;;;3.72;;
74593;SDS011;63097;51.872;4.460;2023-08-24T00:20:13;13.70;;;4.43;;
74593;SDS011;63097;51.872;4.460;2023-08-24T00:22:39;7.35;;;3.55;;
74593;SDS011;63097;51.872;4.460;2023-08-24T00:25:06;7.70;;;3.88;;
74593;SDS011;63097;51.872;4.460;2023-08-24T00:27:32;16.42;;;4.40;;
74593;SDS011;63097;51.872;4.460;2023-08-24T00:29:58;7.32;;;3.90;;
74593;SDS011;63097;51.872;4.460;2023-08-24T00:32:23;8.77;;;4.40;;
74593;SDS011;63097;51.872;4.460;2023-08-24T00:34:48;9.98;;;4.32;;
74593;SDS011;63097;51.872;4.460;2023-08-24T00:37:14;16.33;;;4.22;;
74593;SDS011;63097;51.872;4.460;2023-08-24T00:39:39;12.13;;;4.53;;
74593;SDS011;63097;51.872;4.460;2023-08-24T00:42:04;15.93;;;5.85;;
74593;SDS011;63097;51.872;4.460;2023-08-24T00:44:30;9.15;;;4.88;;
74593;SDS011;63097;51.872;4.460;2023-08-24T00:46:55;11.15;;;4.97;;
74593;SDS011;63097;51.872;4.460;2023-08-24T00:49:21;15.18;;;5.18;;
74593;SDS011;63097;51.872;4.460;2023-08-24T00:51:46;6.47;;;3.78;;
74593;SDS011;63097;51.872;4.460;2023-08-24T00:54:12;18.90;;;5.40;;
74593;SDS011;63097;51.872;4.460;2023-08-24T00:56:37;10.18;;;4.90;;
74593;SDS011;63097;51.872;4.460;2023-08-24T00:59:05;9.43;;;5.13;;
74593;SDS011;63097;51.872;4.460;2023-08-24T01:01:30;9.20;;;5.07;;
74593;SDS011;63097;51.872;4.460;2023-08-24T01:03:56;11.55;;;5.45;;
74593;SDS011;63097;51.872;4.460;2023-08-24T01:06:21;19.60;;;5.28;;
74593;SDS011;63097;51.872;4.460;2023-08-24T01:08:47;17.58;;;5.53;;
74593;SDS011;63097;51.872;4.460;2023-08-24T01:11:27;13.55;;;5.32;;
74593;SDS011;63097;51.872;4.460;2023-08-24T01:16:56;13.43;;;4.80;;
74593;SDS011;63097;51.872;4.460;2023-08-24T01:21:52;13.88;;;6.25;;
74593;SDS011;63097;51.872;4.460;2023-08-24T01:24:31;14.18;;;5.03;;
74593;SDS011;63097;51.872;4.460;2023-08-24T01:26:59;16.77;;;5.10;;
74593;SDS011;63097;51.872;4.460;2023-08-24T01:29:26;19.85;;;5.45;;
74593;SDS011;63097;51.872;4.460;2023-08-24T01:31:52;10.07;;;5.32;;
74593;SDS011;63097;51.872;4.460;2023-08-24T01:34:17;16.45;;;5.75;;
74593;SDS011;63097;51.872;4.460;2023-08-24T01:36:43;20.02;;;5.95;;
74593;SDS011;63097;51.872;4.460;2023-08-24T01:39:19;17.50;;;6.15;;
74593;SDS011;63097;51.872;4.460;2023-08-24T01:44:21;16.95;;;5.97;;
74593;SDS011;63097;51.872;4.460;2023-08-24T01:46:47;14.35;;;6.30;;
74593;SDS011;63097;51.872;4.460;2023-08-24T01:49:15;17.10;;;5.97;;
74593;SDS011;63097;51.872;4.460;2023-08-24T01:51:42;24.40;;;6.95;;
74593;SDS011;63097;51.872;4.460;2023-08-24T01:54:09;23.15;;;6.25;;
74593;SDS011;63097;51.872;4.460;2023-08-24T01:56:34;16.70;;;6.38;;
74593;SDS011;63097;51.872;4.460;2023-08-24T01:59:00;12.85;;;6.28;;
74593;SDS011;63097;51.872;4.460;2023-08-24T02:01:25;13.35;;;7.18;;
74593;SDS011;63097;51.872;4.460;2023-08-24T02:03:50;16.92;;;6.90;;
74593;SDS011;63097;51.872;4.460;2023-08-24T02:06:16;17.40;;;7.45;;
74593;SDS011;63097;51.872;4.460;2023-08-24T02:08:41;17.08;;;6.90;;
74593;SDS011;63097;51.872;4.460;2023-08-24T02:11:07;20.05;;;7.38;;
74593;SDS011;63097;51.872;4.460;2023-08-24T02:13:33;17.13;;;7.22;;
74593;SDS011;63097;51.872;4.460;2023-08-24T02:16:02;17.80;;;7.47;;
74593;SDS011;63097;51.872;4.460;2023-08-24T02:18:32;17.20;;;7.32;;
74593;SDS011;63097;51.872;4.460;2023-08-24T02:20:58;12.77;;;7.05;;
74593;SDS011;63097;51.872;4.460;2023-08-24T02:23:23;16.77;;;8.15;;
74593;SDS011;63097;51.872;4.460;2023-08-24T02:25:48;13.90;;;7.78;;
74593;SDS011;63097;51.872;4.460;2023-08-24T02:28:14;16.25;;;7.03;;
74593;SDS011;63097;51.872;4.460;2023-08-24T02:30:39;17.85;;;6.80;;
74593;SDS011;63097;51.872;4.460;2023-08-24T02:33:04;12.65;;;6.65;;
74593;SDS011;63097;51.872;4.460;2023-08-24T02:35:30;12.35;;;7.00;;
74593;SDS011;63097;51.872;4.460;2023-08-24T02:37:55;16.05;;;7.13;;
74593;SDS011;63097;51.872;4.460;2023-08-24T02:40:20;14.75;;;6.55;;
74593;SDS011;63097;51.872;4.460;2023-08-24T02:42:46;13.10;;;6.78;;
74593;SDS011;63097;51.872;4.460;2023-08-24T02:45:11;16.67;;;7.25;;
74593;SDS011;63097;51.872;4.460;2023-08-24T02:47:36;15.27;;;6.78;;
74593;SDS011;63097;51.872;4.460;2023-08-24T02:50:02;18.23;;;7.47;;
74593;SDS011;63097;51.872;4.460;2023-08-24T02:52:27;17.73;;;7.40;;
74593;SDS011;63097;51.872;4.460;2023-08-24T02:54:52;19.05;;;7.05;;
74593;SDS011;63097;51.872;4.460;2023-08-24T02:57:18;12.30;;;6.82;;
74593;SDS011;63097;51.872;4.460;2023-08-24T02:59:43;12.05;;;6.53;;
74593;SDS011;63097;51.872;4.460;2023-08-24T03:02:08;18.38;;;8.32;;
74593;SDS011;63097;51.872;4.460;2023-08-24T03:04:34;16.73;;;6.05;;
74593;SDS011;63097;51.872;4.460;2023-08-24T03:06:59;12.10;;;6.32;;
74593;SDS011;63097;51.872;4.460;2023-08-24T03:09:24;11.77;;;6.38;;
74593;SDS011;63097;51.872;4.460;2023-08-24T03:11:50;13.10;;;6.25;;
74593;SDS011;63097;51.872;4.460;2023-08-24T03:14:15;14.73;;;6.30;;
74593;SDS011;63097;51.872;4.460;2023-08-24T03:16:40;20.55;;;6.55;;
74593;SDS011;63097;51.872;4.460;2023-08-24T03:19:05;14.25;;;6.60;;
74593;SDS011;63097;51.872;4.460;2023-08-24T03:21:31;16.83;;;5.70;;
74593;SDS011;63097;51.872;4.460;2023-08-24T03:23:56;15.00;;;6.07;;
74593;SDS011;63097;51.872;4.460;2023-08-24T03:26:21;16.52;;;6.30;;
74593;SDS011;63097;51.872;4.460;2023-08-24T03:28:47;14.15;;;6.40;;
74593;SDS011;63097;51.872;4.460;2023-08-24T03:31:12;14.80;;;5.68;;
74593;SDS011;63097;51.872;4.460;2023-08-24T03:33:37;19.92;;;5.50;;
74593;SDS011;63097;51.872;4.460;2023-08-24T03:36:03;13.20;;;5.95;;
74593;SDS011;63097;51.872;4.460;2023-08-24T03:38:28;13.10;;;5.95;;
74593;SDS011;63097;51.872;4.460;2023-08-24T03:41:00;9.95;;;5.43;;
74593;SDS011;63097;51.872;4.460;2023-08-24T03:43:28;16.40;;;6.45;;
74593;SDS011;63097;51.872;4.460;2023-08-24T03:45:57;13.15;;;5.32;;
74593;SDS011;63097;51.872;4.460;2023-08-24T03:48:22;15.57;;;6.43;;
74593;SDS011;63097;51.872;4.460;2023-08-24T03:50:47;14.88;;;5.88;;
74593;SDS011;63097;51.872;4.460;2023-08-24T03:53:13;12.65;;;6.32;;
74593;SDS011;63097;51.872;4.460;2023-08-24T03:55:38;12.27;;;6.03;;
74593;SDS011;63097;51.872;4.460;2023-08-24T03:58:03;13.05;;;6.38;;
74593;SDS011;63097;51.872;4.460;2023-08-24T04:00:29;12.60;;;6.28;;
74593;SDS011;63097;51.872;4.460;2023-08-24T04:02:54;13.43;;;6.60;;
74593;SDS011;63097;51.872;4.460;2023-08-24T04:05:19;13.07;;;7.32;;
74593;SDS011;63097;51.872;4.460;2023-08-24T04:07:45;21.67;;;7.72;;
74593;SDS011;63097;51.872;4.460;2023-08-24T04:10:10;16.13;;;7.03;;
74593;SDS011;63097;51.872;4.460;2023-08-24T04:12:36;13.13;;;7.45;;
74593;SDS011;63097;51.872;4.460;2023-08-24T04:15:01;14.75;;;6.93;;
74593;SDS011;63097;51.872;4.460;2023-08-24T04:17:27;14.88;;;6.43;;
74593;SDS011;63097;51.872;4.460;2023-08-24T04:19:52;20.13;;;7.57;;
74593;SDS011;63097;51.872;4.460;2023-08-24T04:22:17;21.00;;;6.80;;
74593;SDS011;63097;51.872;4.460;2023-08-24T04:24:43;16.73;;;7.20;;
74593;SDS011;63097;51.872;4.460;2023-08-24T04:27:08;22.80;;;7.40;;
74593;SDS011;63097;51.872;4.460;2023-08-24T04:29:33;14.52;;;7.07;;
74593;SDS011;63097;51.872;4.460;2023-08-24T04:31:59;11.93;;;6.85;;
74593;SDS011;63097;51.872;4.460;2023-08-24T04:34:24;14.55;;;6.93;;
74593;SDS011;63097;51.872;4.460;2023-08-24T04:36:49;14.00;;;6.82;;
74593;SDS011;63097;51.872;4.460;2023-08-24T04:39:15;13.07;;;7.10;;
74593;SDS011;63097;51.872;4.460;2023-08-24T04:41:40;20.85;;;7.45;;
74593;SDS011;63097;51.872;4.460;2023-08-24T04:44:05;17.00;;;7.93;;
74593;SDS011;63097;51.872;4.460;2023-08-24T04:46:31;20.00;;;7.47;;
74593;SDS011;63097;51.872;4.460;2023-08-24T04:48:56;14.05;;;8.07;;
74593;SDS011;63097;51.872;4.460;2023-08-24T04:51:21;19.13;;;8.82;;
74593;SDS011;63097;51.872;4.460;2023-08-24T04:53:46;19.75;;;9.05;;
74593;SDS011;63097;51.872;4.460;2023-08-24T04:56:12;17.98;;;8.88;;
74593;SDS011;63097;51.872;4.460;2023-08-24T04:58:37;17.42;;;8.52;;
74593;SDS011;63097;51.872;4.460;2023-08-24T05:01:02;20.48;;;9.23;;
74593;SDS011;63097;51.872;4.460;2023-08-24T05:03:28;14.60;;;9.05;;
74593;SDS011;63097;51.872;4.460;2023-08-24T05:05:53;17.30;;;9.10;;
74593;SDS011;63097;51.872;4.460;2023-08-24T05:08:18;13.93;;;8.63;;
74593;SDS011;63097;51.872;4.460;2023-08-24T05:10:44;23.58;;;10.73;;
74593;SDS011;63097;51.872;4.460;2023-08-24T05:13:09;21.95;;;9.32;;
74593;SDS011;63097;51.872;4.460;2023-08-24T05:15:34;14.75;;;8.75;;
74593;SDS011;63097;51.872;4.460;2023-08-24T05:18:00;16.17;;;9.45;;
74593;SDS011;63097;51.872;4.460;2023-08-24T05:20:25;15.65;;;9.30;;
74593;SDS011;63097;51.872;4.460;2023-08-24T05:22:51;20.63;;;9.38;;
74593;SDS011;63097;51.872;4.460;2023-08-24T05:25:16;15.77;;;10.10;;
74593;SDS011;63097;51.872;4.460;2023-08-24T05:27:41;18.27;;;9.80;;
74593;SDS011;63097;51.872;4.460;2023-08-24T05:30:07;20.90;;;10.52;;
74593;SDS011;63097;51.872;4.460;2023-08-24T05:32:34;21.60;;;10.05;;
74593;SDS011;63097;51.872;4.460;2023-08-24T05:35:00;24.63;;;10.65;;
74593;SDS011;63097;51.872;4.460;2023-08-24T05:37:25;24.25;;;11.07;;
74593;SDS011;63097;51.872;4.460;2023-08-24T05:39:50;21.73;;;10.63;;
74593;SDS011;63097;51.872;4.460;2023-08-24T05:42:16;17.52;;;10.38;;
74593;SDS011;63097;51.872;4.460;2023-08-24T05:44:41;19.13;;;10.55;;
74593;SDS011;63097;51.872;4.460;2023-08-24T05:47:06;24.55;;;11.65;;
74593;SDS011;63097;51.872;4.460;2023-08-24T05:49:32;23.60;;;11.32;;
74593;SDS011;63097;51.872;4.460;2023-08-24T05:51:57;26.95;;;10.95;;
74593;SDS011;63097;51.872;4.460;2023-08-24T05:54:22;24.55;;;10.88;;
74593;SDS011;63097;51.872;4.460;2023-08-24T05:56:48;21.98;;;11.23;;
74593;SDS011;63097;51.872;4.460;2023-08-24T05:59:13;17.25;;;11.40;;
74593;SDS011;63097;51.872;4.460;2023-08-24T06:01:39;17.85;;;11.13;;
74593;SDS011;63097;51.872;4.460;2023-08-24T06:04:05;29.65;;;13.23;;
74593;SDS011;63097;51.872;4.460;2023-08-24T06:06:30;21.08;;;12.45;;
74593;SDS011;63097;51.872;4.460;2023-08-24T06:08:56;21.77;;;11.65;;
74593;SDS011;63097;51.872;4.460;2023-08-24T06:11:21;23.67;;;12.38;;
74593;SDS011;63097;51.872;4.460;2023-08-24T06:13:46;22.48;;;12.20;;
74593;SDS011;63097;51.872;4.460;2023-08-24T06:16:12;28.80;;;12.27;;
74593;SDS011;63097;51.872;4.460;2023-08-24T06:18:37;21.73;;;12.77;;
74593;SDS011;63097;51.872;4.460;2023-08-24T06:21:02;28.65;;;13.07;;
74593;SDS011;63097;51.872;4.460;2023-08-24T06:23:28;28.00;;;13.38;;
74593;SDS011;63097;51.872;4.460;2023-08-24T06:25:53;26.45;;;12.55;;
74593;SDS011;63097;51.872;4.460;2023-08-24T06:28:18;26.25;;;12.77;;
74593;SDS011;63097;51.872;4.460;2023-08-24T06:30:45;23.90;;;12.75;;
74593;SDS011;63097;51.872;4.460;2023-08-24T06:33:10;27.90;;;12.77;;
74593;SDS011;63097;51.872;4.460;2023-08-24T06:35:36;25.45;;;13.23;;
74593;SDS011;63097;51.872;4.460;2023-08-24T06:38:02;28.40;;;12.63;;
74593;SDS011;63097;51.872;4.460;2023-08-24T06:40:28;28.73;;;12.45;;
74593;SDS011;63097;51.872;4.460;2023-08-24T06:42:54;27.85;;;13.48;;
74593;SDS011;63097;51.872;4.460;2023-08-24T06:45:19;28.50;;;13.27;;
74593;SDS011;63097;51.872;4.460;2023-08-24T06:47:45;22.77;;;12.45;;
74593;SDS011;63097;51.872;4.460;2023-08-24T06:50:10;26.15;;;12.05;;
74593;SDS011;63097;51.872;4.460;2023-08-24T06:52:36;25.33;;;11.95;;
74593;SDS011;63097;51.872;4.460;2023-08-24T06:55:01;24.85;;;12.43;;
74593;SDS011;63097;51.872;4.460;2023-08-24T06:57:27;30.05;;;12.82;;
74593;SDS011;63097;51.872;4.460;2023-08-24T06:59:52;27.20;;;12.48;;
74593;SDS011;63097;51.872;4.460;2023-08-24T07:02:18;37.85;;;13.38;;
74593;SDS011;63097;51.872;4.460;2023-08-24T07:04:43;24.50;;;12.45;;
74593;SDS011;63097;51.872;4.460;2023-08-24T07:07:09;21.02;;;12.02;;
74593;SDS011;63097;51.872;4.460;2023-08-24T07:09:35;25.95;;;12.77;;
74593;SDS011;63097;51.872;4.460;2023-08-24T07:12:00;26.60;;;12.32;;
74593;SDS011;63097;51.872;4.460;2023-08-24T07:14:28;24.55;;;12.15;;
74593;SDS011;63097;51.872;4.460;2023-08-24T07:16:54;27.35;;;12.48;;
74593;SDS011;63097;51.872;4.460;2023-08-24T07:19:19;24.23;;;12.32;;
74593;SDS011;63097;51.872;4.460;2023-08-24T07:21:44;21.92;;;12.65;;
74593;SDS011;63097;51.872;4.460;2023-08-24T07:24:10;29.13;;;12.88;;
74593;SDS011;63097;51.872;4.460;2023-08-24T07:26:35;26.27;;;11.77;;
74593;SDS011;63097;51.872;4.460;2023-08-24T07:29:00;25.73;;;12.50;;
74593;SDS011;63097;51.872;4.460;2023-08-24T07:31:26;22.23;;;12.48;;
74593;SDS011;63097;51.872;4.460;2023-08-24T07:33:51;27.80;;;12.32;;
74593;SDS011;63097;51.872;4.460;2023-08-24T07:36:16;20.95;;;11.77;;
74593;SDS011;63097;51.872;4.460;2023-08-24T07:38:42;25.20;;;11.30;;
74593;SDS011;63097;51.872;4.460;2023-08-24T07:41:07;25.27;;;12.07;;
74593;SDS011;63097;51.872;4.460;2023-08-24T07:43:32;24.80;;;12.38;;
74593;SDS011;63097;51.872;4.460;2023-08-24T07:45:58;19.98;;;10.88;;
74593;SDS011;63097;51.872;4.460;2023-08-24T07:48:23;18.95;;;11.38;;
74593;SDS011;63097;51.872;4.460;2023-08-24T07:50:49;21.52;;;10.85;;
74593;SDS011;63097;51.872;4.460;2023-08-24T07:53:14;22.75;;;10.90;;
74593;SDS011;63097;51.872;4.460;2023-08-24T07:55:39;21.15;;;10.57;;
74593;SDS011;63097;51.872;4.460;2023-08-24T07:58:05;22.48;;;10.02;;
74593;SDS011;63097;51.872;4.460;2023-08-24T08:00:30;22.27;;;10.18;;
74593;SDS011;63097;51.872;4.460;2023-08-24T08:02:55;18.90;;;10.18;;
74593;SDS011;63097;51.872;4.460;2023-08-24T08:05:21;21.65;;;10.60;;
74593;SDS011;63097;51.872;4.460;2023-08-24T08:07:46;18.05;;;9.95;;
74593;SDS011;63097;51.872;4.460;2023-08-24T08:10:11;20.42;;;10.30;;
74593;SDS011;63097;51.872;4.460;2023-08-24T08:12:37;17.42;;;10.00;;
74593;SDS011;63097;51.872;4.460;2023-08-24T08:15:02;15.68;;;9.45;;
74593;SDS011;63097;51.872;4.460;2023-08-24T08:17:28;21.33;;;9.93;;
74593;SDS011;63097;51.872;4.460;2023-08-24T08:19:56;27.77;;;10.05;;
74593;SDS011;63097;51.872;4.460;2023-08-24T08:22:22;24.92;;;9.52;;
74593;SDS011;63097;51.872;4.460;2023-08-24T08:24:48;28.75;;;9.73;;
74593;SDS011;63097;51.872;4.460;2023-08-24T08:27:13;22.13;;;9.65;;
74593;SDS011;63097;51.872;4.460;2023-08-24T08:29:39;22.52;;;8.90;;
74593;SDS011;63097;51.872;4.460;2023-08-24T08:32:04;22.98;;;9.50;;
74593;SDS011;63097;51.872;4.460;2023-08-24T08:34:30;25.27;;;9.68;;
74593;SDS011;63097;51.872;4.460;2023-08-24T08:36:55;20.90;;;9.60;;
74593;SDS011;63097;51.872;4.460;2023-08-24T08:39:20;22.13;;;9.65;;
74593;SDS011;63097;51.872;4.460;2023-08-24T08:41:46;20.55;;;9.38;;
74593;SDS011;63097;51.872;4.460;2023-08-24T08:44:15;22.92;;;8.85;;
74593;SDS011;63097;51.872;4.460;2023-08-24T08:46:41;19.25;;;9.93;;
74593;SDS011;63097;51.872;4.460;2023-08-24T08:49:07;26.55;;;9.32;;
74593;SDS011;63097;51.872;4.460;2023-08-24T08:51:35;20.35;;;9.45;;
74593;SDS011;63097;51.872;4.460;2023-08-24T08:54:01;23.80;;;9.60;;
74593;SDS011;63097;51.872;4.460;2023-08-24T08:56:27;19.15;;;9.65;;
74593;SDS011;63097;51.872;4.460;2023-08-24T08:58:52;22.00;;;10.20;;
74593;SDS011;63097;51.872;4.460;2023-08-24T09:01:19;17.58;;;9.90;;
74593;SDS011;63097;51.872;4.460;2023-08-24T09:03:45;20.23;;;9.68;;
74593;SDS011;63097;51.872;4.460;2023-08-24T09:06:11;28.92;;;9.55;;
74593;SDS011;63097;51.872;4.460;2023-08-24T09:08:36;20.77;;;9.13;;
74593;SDS011;63097;51.872;4.460;2023-08-24T09:11:02;20.50;;;9.23;;
74593;SDS011;63097;51.872;4.460;2023-08-24T09:13:28;18.30;;;9.02;;
74593;SDS011;63097;51.872;4.460;2023-08-24T09:15:54;25.45;;;9.75;;
74593;SDS011;63097;51.872;4.460;2023-08-24T09:18:38;17.65;;;10.10;;
74593;SDS011;63097;51.872;4.460;2023-08-24T09:21:08;19.02;;;8.98;;
74593;SDS011;63097;51.872;4.460;2023-08-24T09:23:37;20.75;;;10.77;;
74593;SDS011;63097;51.872;4.460;2023-08-24T09:26:07;27.30;;;9.65;;
74593;SDS011;63097;51.872;4.460;2023-08-24T09:28:34;18.88;;;10.43;;
74593;SDS011;63097;51.872;4.460;2023-08-24T09:30:59;22.73;;;9.48;;
74593;SDS011;63097;51.872;4.460;2023-08-24T09:33:25;21.05;;;10.15;;
74593;SDS011;63097;51.872;4.460;2023-08-24T09:35:52;25.77;;;10.13;;
74593;SDS011;63097;51.872;4.460;2023-08-24T09:38:18;19.02;;;9.10;;
74593;SDS011;63097;51.872;4.460;2023-08-24T09:40:46;18.80;;;9.57;;
74593;SDS011;63097;51.872;4.460;2023-08-24T09:43:12;20.10;;;9.55;;
74593;SDS011;63097;51.872;4.460;2023-08-24T09:45:37;19.10;;;9.25;;
74593;SDS011;63097;51.872;4.460;2023-08-24T09:48:03;22.00;;;9.05;;
74593;SDS011;63097;51.872;4.460;2023-08-24T09:50:30;19.58;;;9.63;;
74593;SDS011;63097;51.872;4.460;2023-08-24T09:52:56;23.00;;;10.40;;
74593;SDS011;63097;51.872;4.460;2023-08-24T09:55:27;22.48;;;9.82;;
74593;SDS011;63097;51.872;4.460;2023-08-24T09:57:57;20.30;;;10.15;;
74593;SDS011;63097;51.872;4.460;2023-08-24T10:00:24;20.70;;;10.13;;
74593;SDS011;63097;51.872;4.460;2023-08-24T10:02:51;17.23;;;9.75;;
74593;SDS011;63097;51.872;4.460;2023-08-24T10:05:19;21.27;;;10.93;;
74593;SDS011;63097;51.872;4.460;2023-08-24T10:07:46;23.05;;;11.18;;
74593;SDS011;63097;51.872;4.460;2023-08-24T10:10:16;25.38;;;12.35;;
74593;SDS011;63097;51.872;4.460;2023-08-24T10:12:48;19.85;;;10.48;;
74593;SDS011;63097;51.872;4.460;2023-08-24T10:15:16;25.35;;;11.63;;
74593;SDS011;63097;51.872;4.460;2023-08-24T10:17:43;26.67;;;11.43;;
74593;SDS011;63097;51.872;4.460;2023-08-24T10:20:10;24.75;;;12.02;;
74593;SDS011;63097;51.872;4.460;2023-08-24T10:22:36;27.00;;;12.73;;
74593;SDS011;63097;51.872;4.460;2023-08-24T10:25:02;21.98;;;12.63;;
74593;SDS011;63097;51.872;4.460;2023-08-24T10:27:28;20.35;;;12.57;;
74593;SDS011;63097;51.872;4.460;2023-08-24T10:29:54;30.23;;;13.02;;
74593;SDS011;63097;51.872;4.460;2023-08-24T10:32:19;28.77;;;13.15;;
74593;SDS011;63097;51.872;4.460;2023-08-24T10:34:47;25.27;;;13.40;;
74593;SDS011;63097;51.872;4.460;2023-08-24T10:37:12;24.08;;;13.95;;
74593;SDS011;63097;51.872;4.460;2023-08-24T10:39:43;26.13;;;13.85;;
74593;SDS011;63097;51.872;4.460;2023-08-24T10:42:10;22.05;;;13.77;;
74593;SDS011;63097;51.872;4.460;2023-08-24T10:44:37;23.48;;;13.25;;
74593;SDS011;63097;51.872;4.460;2023-08-24T10:47:06;26.60;;;13.80;;
74593;SDS011;63097;51.872;4.460;2023-08-24T10:52:23;26.63;;;13.18;;
74593;SDS011;63097;51.872;4.460;2023-08-24T10:54:59;22.58;;;13.38;;
74593;SDS011;63097;51.872;4.460;2023-08-24T10:57:26;29.15;;;13.57;;
74593;SDS011;63097;51.872;4.460;2023-08-24T11:02:29;33.88;;;14.30;;
74593;SDS011;63097;51.872;4.460;2023-08-24T11:05:03;26.90;;;14.77;;
74593;SDS011;63097;51.872;4.460;2023-08-24T11:07:30;27.40;;;14.43;;
74593;SDS011;63097;51.872;4.460;2023-08-24T11:09:55;30.90;;;14.73;;
74593;SDS011;63097;51.872;4.460;2023-08-24T11:12:20;32.03;;;14.98;;
74593;SDS011;63097;51.872;4.460;2023-08-24T11:14:49;22.42;;;14.90;;
74593;SDS011;63097;51.872;4.460;2023-08-24T11:17:19;21.05;;;14.00;;
74593;SDS011;63097;51.872;4.460;2023-08-24T11:19:49;26.60;;;13.52;;
74593;SDS011;63097;51.872;4.460;2023-08-24T11:22:16;24.48;;;13.40;;
74593;SDS011;63097;51.872;4.460;2023-08-24T11:24:42;24.65;;;12.63;;
74593;SDS011;63097;51.872;4.460;2023-08-24T11:27:08;31.90;;;13.65;;
74593;SDS011;63097;51.872;4.460;2023-08-24T11:29:34;23.92;;;12.93;;
74593;SDS011;63097;51.872;4.460;2023-08-24T11:31:59;25.00;;;12.30;;
74593;SDS011;63097;51.872;4.460;2023-08-24T11:34:25;26.00;;;12.70;;
74593;SDS011;63097;51.872;4.460;2023-08-24T11:36:50;26.23;;;12.63;;
74593;SDS011;63097;51.872;4.460;2023-08-24T11:39:16;22.08;;;12.65;;
74593;SDS011;63097;51.872;4.460;2023-08-24T11:41:56;18.88;;;11.77;;
74593;SDS011;63097;51.872;4.460;2023-08-24T11:44:46;23.42;;;11.80;;
74593;SDS011;63097;51.872;4.460;2023-08-24T11:47:13;25.33;;;12.45;;
74593;SDS011;63097;51.872;4.460;2023-08-24T11:49:39;28.48;;;12.20;;
74593;SDS011;63097;51.872;4.460;2023-08-24T11:52:04;23.65;;;12.70;;
74593;SDS011;63097;51.872;4.460;2023-08-24T11:54:32;25.92;;;12.13;;
74593;SDS011;63097;51.872;4.460;2023-08-24T11:56:58;27.05;;;12.13;;
74593;SDS011;63097;51.872;4.460;2023-08-24T11:59:23;30.23;;;11.65;;
74593;SDS011;63097;51.872;4.460;2023-08-24T12:01:49;25.58;;;11.88;;
74593;SDS011;63097;51.872;4.460;2023-08-24T12:04:15;22.70;;;11.98;;
74593;SDS011;63097;51.872;4.460;2023-08-24T12:06:41;22.23;;;11.37;;
74593;SDS011;63097;51.872;4.460;2023-08-24T12:09:06;20.35;;;11.38;;
74593;SDS011;63097;51.872;4.460;2023-08-24T12:11:37;23.73;;;11.20;;
74593;SDS011;63097;51.872;4.460;2023-08-24T12:14:03;19.38;;;11.60;;
74593;SDS011;63097;51.872;4.460;2023-08-24T12:16:30;28.42;;;11.15;;
74593;SDS011;63097;51.872;4.460;2023-08-24T12:18:57;22.35;;;10.63;;
74593;SDS011;63097;51.872;4.460;2023-08-24T12:21:25;29.30;;;11.73;;
74593;SDS011;63097;51.872;4.460;2023-08-24T12:23:58;22.25;;;10.82;;
74593;SDS011;63097;51.872;4.460;2023-08-24T12:28:50;32.17;;;10.80;;
74593;SDS011;63097;51.872;4.460;2023-08-24T12:31:18;22.17;;;10.13;;
74593;SDS011;63097;51.872;4.460;2023-08-24T12:33:58;24.73;;;9.90;;
74593;SDS011;63097;51.872;4.460;2023-08-24T12:36:33;23.50;;;11.23;;
74593;SDS011;63097;51.872;4.460;2023-08-24T12:39:00;28.60;;;12.77;;
74593;SDS011;63097;51.872;4.460;2023-08-24T12:41:25;21.48;;;11.35;;
74593;SDS011;63097;51.872;4.460;2023-08-24T12:43:51;23.10;;;11.90;;
74593;SDS011;63097;51.872;4.460;2023-08-24T12:46:16;25.35;;;11.30;;
74593;SDS011;63097;51.872;4.460;2023-08-24T12:48:42;24.45;;;11.40;;
74593;SDS011;63097;51.872;4.460;2023-08-24T12:51:07;26.13;;;11.40;;
74593;SDS011;63097;51.872;4.460;2023-08-24T12:53:32;22.17;;;11.93;;
74593;SDS011;63097;51.872;4.460;2023-08-24T12:55:57;23.37;;;12.33;;
74593;SDS011;63097;51.872;4.460;2023-08-24T12:58:23;28.20;;;12.40;;
74593;SDS011;63097;51.872;4.460;2023-08-24T13:00:48;28.30;;;12.60;;
74593;SDS011;63097;51.872;4.460;2023-08-24T13:03:13;22.83;;;12.27;;
74593;SDS011;63097;51.872;4.460;2023-08-24T13:05:39;21.20;;;11.65;;
74593;SDS011;63097;51.872;4.460;2023-08-24T13:08:04;27.07;;;13.30;;
74593;SDS011;63097;51.872;4.460;2023-08-24T13:10:30;34.15;;;13.55;;
74593;SDS011;63097;51.872;4.460;2023-08-24T13:12:55;24.00;;;13.13;;
74593;SDS011;63097;51.872;4.460;2023-08-24T13:15:20;24.40;;;14.07;;
74593;SDS011;63097;51.872;4.460;2023-08-24T13:17:46;30.17;;;13.88;;
74593;SDS011;63097;51.872;4.460;2023-08-24T13:20:11;36.20;;;14.95;;
74593;SDS011;63097;51.872;4.460;2023-08-24T13:22:37;26.98;;;13.80;;
74593;SDS011;63097;51.872;4.460;2023-08-24T13:25:03;26.50;;;14.15;;
74593;SDS011;63097;51.872;4.460;2023-08-24T13:27:28;31.48;;;14.18;;
74593;SDS011;63097;51.872;4.460;2023-08-24T13:29:54;33.55;;;12.77;;
74593;SDS011;63097;51.872;4.460;2023-08-24T13:32:21;22.77;;;12.43;;
74593;SDS011;63097;51.872;4.460;2023-08-24T13:34:46;26.50;;;13.45;;
74593;SDS011;63097;51.872;4.460;2023-08-24T13:37:11;25.08;;;13.23;;
74593;SDS011;63097;51.872;4.460;2023-08-24T13:39:37;23.15;;;13.00;;
74593;SDS011;63097;51.872;4.460;2023-08-24T13:42:02;21.10;;;12.30;;
74593;SDS011;63097;51.872;4.460;2023-08-24T13:44:27;21.85;;;13.57;;
74593;SDS011;63097;51.872;4.460;2023-08-24T13:46:53;36.45;;;12.77;;
74593;SDS011;63097;51.872;4.460;2023-08-24T13:49:18;26.42;;;12.40;;
74593;SDS011;63097;51.872;4.460;2023-08-24T13:51:44;29.88;;;12.98;;
74593;SDS011;63097;51.872;4.460;2023-08-24T13:54:16;32.88;;;12.65;;
74593;SDS011;63097;51.872;4.460;2023-08-24T13:56:43;25.83;;;13.13;;
74593;SDS011;63097;51.872;4.460;2023-08-24T13:59:09;27.35;;;12.45;;
74593;SDS011;63097;51.872;4.460;2023-08-24T14:01:34;29.35;;;12.23;;
74593;SDS011;63097;51.872;4.460;2023-08-24T14:03:59;29.60;;;13.70;;
74593;SDS011;63097;51.872;4.460;2023-08-24T14:06:27;27.85;;;13.75;;
74593;SDS011;63097;51.872;4.460;2023-08-24T14:08:53;24.83;;;12.65;;
74593;SDS011;63097;51.872;4.460;2023-08-24T14:11:18;33.63;;;13.85;;
74593;SDS011;63097;51.872;4.460;2023-08-24T14:13:44;31.38;;;15.82;;
74593;SDS011;63097;51.872;4.460;2023-08-24T14:16:09;34.95;;;14.95;;
74593;SDS011;63097;51.872;4.460;2023-08-24T14:18:34;36.47;;;15.63;;
74593;SDS011;63097;51.872;4.460;2023-08-24T14:21:00;33.33;;;15.30;;
74593;SDS011;63097;51.872;4.460;2023-08-24T14:23:25;35.03;;;14.70;;
74593;SDS011;63097;51.872;4.460;2023-08-24T14:25:50;34.58;;;14.85;;
74593;SDS011;63097;51.872;4.460;2023-08-24T14:28:18;24.95;;;13.50;;
74593;SDS011;63097;51.872;4.460;2023-08-24T14:30:45;29.10;;;13.15;;
74593;SDS011;63097;51.872;4.460;2023-08-24T14:33:10;29.35;;;12.15;;
74593;SDS011;63097;51.872;4.460;2023-08-24T14:35:35;23.50;;;11.88;;
74593;SDS011;63097;51.872;4.460;2023-08-24T14:38:01;19.70;;;6.50;;